createdAt,value
2019-02-23T00:00:51.153Z,7.17
2019-02-23T00:03:17.555Z,6.80
2019-02-23T00:05:44.170Z,7.20
2019-02-23T00:08:10.735Z,6.90
2019-02-23T00:10:37.314Z,6.40
2019-02-23T00:13:03.916Z,7.10
2019-02-23T00:15:30.290Z,6.63
2019-02-23T00:17:56.615Z,6.93
2019-02-23T00:20:22.938Z,6.47
2019-02-23T00:22:49.547Z,7.00
2019-02-23T00:25:16.111Z,6.80
2019-02-23T00:27:42.453Z,7.00
2019-02-23T00:30:08.898Z,6.10
2019-02-23T00:32:35.249Z,6.87
2019-02-23T00:35:01.615Z,6.47
2019-02-23T00:37:27.932Z,7.20
2019-02-23T00:39:54.555Z,7.03
2019-02-23T00:42:20.866Z,6.77
2019-02-23T00:44:47.212Z,7.63
2019-02-23T00:47:13.532Z,7.07
2019-02-23T00:49:40.099Z,7.43
2019-02-23T00:52:06.721Z,6.20
2019-02-23T00:54:33.068Z,5.50
2019-02-23T00:56:59.697Z,6.43
2019-02-23T00:59:26.266Z,6.20
2019-02-23T01:01:53.153Z,6.67
2019-02-23T01:04:21.434Z,7.60
2019-02-23T01:06:48.017Z,7.60
2019-02-23T01:09:14.637Z,7.60
2019-02-23T01:11:40.969Z,6.27
2019-02-23T01:14:07.344Z,6.70
2019-02-23T01:16:34.034Z,7.57
2019-02-23T01:19:00.355Z,6.17
2019-02-23T01:21:26.645Z,7.47
2019-02-23T01:23:52.990Z,7.97
2019-02-23T01:26:19.566Z,8.93
2019-02-23T01:28:45.897Z,7.17
2019-02-23T01:31:12.929Z,6.13
2019-02-23T01:33:39.406Z,6.03
2019-02-23T01:36:05.743Z,6.77
2019-02-23T01:38:32.085Z,6.90
2019-02-23T01:40:58.401Z,6.20
2019-02-23T01:43:24.735Z,7.53
2019-02-23T01:45:51.060Z,6.77
2019-02-23T01:48:17.419Z,7.27
2019-02-23T01:50:43.784Z,7.40
2019-02-23T01:53:10.183Z,6.80
2019-02-23T01:55:36.593Z,5.73
2019-02-23T01:58:03.205Z,7.77
2019-02-23T02:00:30.568Z,6.47
2019-02-23T02:02:57.195Z,6.67
2019-02-23T02:05:24.543Z,7.30
2019-02-23T02:07:50.979Z,7.50
2019-02-23T02:10:17.971Z,7.50
2019-02-23T02:12:44.292Z,7.87
2019-02-23T02:15:13.471Z,7.97
2019-02-23T02:17:39.825Z,5.67
2019-02-23T02:20:11.040Z,6.23
2019-02-23T02:22:35.402Z,6.77
2019-02-23T02:25:01.984Z,6.17
2019-02-23T02:27:29.494Z,7.53
2019-02-23T02:29:56.135Z,8.10
2019-02-23T02:32:22.577Z,6.90
2019-02-23T02:34:49.224Z,7.87
2019-02-23T02:37:15.538Z,8.10
2019-02-23T02:39:41.928Z,7.07
2019-02-23T02:42:08.245Z,8.27
2019-02-23T02:44:34.583Z,7.87
2019-02-23T02:47:00.925Z,7.40
2019-02-23T02:49:27.509Z,7.57
2019-02-23T02:51:54.246Z,7.30
2019-02-23T02:54:20.614Z,7.47
2019-02-23T02:56:47.386Z,7.47
2019-02-23T02:59:13.817Z,7.70
2019-02-23T03:01:40.169Z,7.10
2019-02-23T03:04:06.590Z,7.90
2019-02-23T03:06:32.937Z,8.80
2019-02-23T03:08:59.564Z,7.80
2019-02-23T03:11:25.945Z,8.00
2019-02-23T03:13:52.282Z,6.93
2019-02-23T03:16:18.953Z,6.67
2019-02-23T03:18:45.335Z,6.67
2019-02-23T03:21:11.641Z,7.50
2019-02-23T03:23:38.311Z,7.47
2019-02-23T03:26:04.636Z,7.80
2019-02-23T03:28:31.052Z,6.70
2019-02-23T03:30:57.644Z,6.77
2019-02-23T03:33:23.960Z,7.13
2019-02-23T03:35:50.616Z,6.57
2019-02-23T03:38:17.277Z,6.80
2019-02-23T03:40:43.886Z,6.00
2019-02-23T03:43:10.199Z,6.37
2019-02-23T03:45:36.529Z,7.43
2019-02-23T03:48:03.122Z,6.70
2019-02-23T03:50:29.538Z,7.57
2019-02-23T03:52:56.736Z,6.27
2019-02-23T03:55:23.818Z,6.93
2019-02-23T03:57:54.155Z,6.33
2019-02-23T04:00:21.017Z,6.70
2019-02-23T04:02:47.352Z,7.10
2019-02-23T04:05:13.700Z,6.87
2019-02-23T04:07:40.300Z,7.20
2019-02-23T04:10:07.190Z,6.93
2019-02-23T04:12:33.610Z,5.50
2019-02-23T04:15:00.411Z,6.77
2019-02-23T04:17:27.071Z,5.97
2019-02-23T04:19:53.424Z,6.63
2019-02-23T04:22:20.024Z,6.67
2019-02-23T04:24:46.393Z,7.23
2019-02-23T04:27:12.688Z,6.37
2019-02-23T04:29:39.296Z,6.97
2019-02-23T04:32:05.590Z,7.77
2019-02-23T04:34:32.230Z,6.27
2019-02-23T04:36:58.900Z,5.00
2019-02-23T04:39:25.556Z,7.00
2019-02-23T04:41:51.851Z,7.20
2019-02-23T04:44:18.437Z,6.27
2019-02-23T04:46:44.758Z,6.50
2019-02-23T04:49:11.084Z,5.90
2019-02-23T04:51:37.456Z,6.10
2019-02-23T04:54:03.750Z,7.27
2019-02-23T04:56:30.086Z,5.73
2019-02-23T04:58:56.690Z,7.77
2019-02-23T05:01:23.408Z,6.43
2019-02-23T05:03:49.842Z,6.30
2019-02-23T05:06:16.444Z,5.77
2019-02-23T05:08:42.804Z,6.17
2019-02-23T05:11:09.208Z,5.97
2019-02-23T05:13:35.582Z,5.47
2019-02-23T05:16:01.890Z,6.27
2019-02-23T05:18:29.562Z,5.87
2019-02-23T05:20:55.856Z,5.93
2019-02-23T05:23:22.167Z,5.47
2019-02-23T05:25:48.501Z,6.70
2019-02-23T05:28:14.833Z,5.47
2019-02-23T05:30:41.464Z,6.57
2019-02-23T05:33:07.772Z,7.17
2019-02-23T05:35:34.439Z,6.97
2019-02-23T05:38:01.061Z,5.60
2019-02-23T05:40:27.388Z,7.67
2019-02-23T05:43:00.930Z,6.30
2019-02-23T05:45:21.956Z,8.37
2019-02-23T05:47:48.546Z,6.00
2019-02-23T05:50:14.923Z,5.70
2019-02-23T05:52:41.216Z,7.63
2019-02-23T05:55:07.707Z,5.67
2019-02-23T05:57:34.008Z,6.40
2019-02-23T06:00:00.358Z,7.57
2019-02-23T06:02:26.690Z,6.83
2019-02-23T06:04:53.321Z,6.07
2019-02-23T06:07:19.649Z,7.37
2019-02-23T06:09:45.977Z,6.17
2019-02-23T06:12:12.380Z,6.43
2019-02-23T06:14:38.742Z,6.70
2019-02-23T06:17:05.110Z,5.87
2019-02-23T06:19:31.413Z,6.33
2019-02-23T06:21:57.723Z,6.00
2019-02-23T06:24:24.300Z,5.33
2019-02-23T06:26:51.655Z,5.67
2019-02-23T06:29:17.974Z,7.20
2019-02-23T06:31:44.559Z,7.10
2019-02-23T06:34:16.092Z,6.67
2019-02-23T06:36:39.400Z,7.73
2019-02-23T06:39:06.038Z,7.23
2019-02-23T06:41:32.678Z,6.23
2019-02-23T06:43:59.289Z,8.10
2019-02-23T06:46:25.602Z,7.77
2019-02-23T06:48:51.913Z,6.90
2019-02-23T06:51:18.230Z,5.93
2019-02-23T06:53:44.574Z,6.57
2019-02-23T06:56:11.192Z,6.33
2019-02-23T06:58:37.512Z,6.17
2019-02-23T07:01:03.813Z,6.93
2019-02-23T07:03:30.162Z,7.50
2019-02-23T07:05:56.534Z,7.13
2019-02-23T07:08:23.170Z,6.30
2019-02-23T07:10:49.709Z,7.93
2019-02-23T07:13:16.289Z,6.93
2019-02-23T07:15:42.691Z,7.63
2019-02-23T07:18:09.021Z,8.27
2019-02-23T07:20:43.858Z,7.03
2019-02-23T07:23:03.931Z,6.50
2019-02-23T07:25:30.533Z,6.30
2019-02-23T07:27:57.180Z,6.67
2019-02-23T07:30:23.594Z,9.27
2019-02-23T07:32:49.937Z,7.03
2019-02-23T07:35:17.306Z,7.50
2019-02-23T07:37:43.689Z,7.90
2019-02-23T07:40:15.107Z,7.57
2019-02-23T07:42:41.567Z,7.63
2019-02-23T07:45:09.414Z,8.37
2019-02-23T07:47:36.233Z,9.43
2019-02-23T07:50:06.772Z,5.80
2019-02-23T07:52:33.232Z,7.10
2019-02-23T07:54:59.874Z,6.10
2019-02-23T07:57:26.302Z,7.20
2019-02-23T07:59:52.657Z,6.73
2019-02-23T08:02:19.228Z,6.83
2019-02-23T08:04:45.591Z,6.57
2019-02-23T08:07:12.029Z,7.20
2019-02-23T08:09:38.690Z,6.30
2019-02-23T08:12:05.097Z,6.83
2019-02-23T08:14:31.440Z,6.20
2019-02-23T08:16:57.761Z,6.20
2019-02-23T08:19:24.354Z,6.17
2019-02-23T08:21:50.678Z,8.13
2019-02-23T08:24:17.296Z,7.30
2019-02-23T08:26:43.605Z,8.43
2019-02-23T08:29:09.983Z,7.07
2019-02-23T08:31:36.560Z,7.13
2019-02-23T08:34:03.169Z,6.00
2019-02-23T08:36:29.494Z,6.53
2019-02-23T08:38:56.092Z,7.17
2019-02-23T08:41:22.423Z,6.10
2019-02-23T08:43:48.759Z,6.07
2019-02-23T08:46:15.213Z,8.20
2019-02-23T08:48:41.870Z,7.37
2019-02-23T08:51:08.466Z,6.70
2019-02-23T08:53:34.770Z,6.50
2019-02-23T08:56:01.091Z,6.83
2019-02-23T08:58:27.689Z,7.70
2019-02-23T09:00:54.042Z,7.00
2019-02-23T09:03:20.660Z,6.60
2019-02-23T09:05:47.053Z,7.27
2019-02-23T09:08:13.512Z,5.83
2019-02-23T09:10:39.852Z,7.23
2019-02-23T09:13:06.188Z,11.23
2019-02-23T09:15:32.559Z,8.00
2019-02-23T09:17:58.904Z,7.90
2019-02-23T09:20:29.053Z,9.13
2019-02-23T09:23:00.132Z,6.50
2019-02-23T09:25:21.720Z,6.60
2019-02-23T09:27:48.197Z,6.70
2019-02-23T09:30:14.632Z,6.27
2019-02-23T09:32:40.945Z,7.97
2019-02-23T09:35:07.261Z,6.80
2019-02-23T09:37:34.793Z,7.50
2019-02-23T09:40:01.110Z,7.83
2019-02-23T09:42:27.428Z,6.67
2019-02-23T09:44:54.043Z,6.83
2019-02-23T09:47:20.368Z,7.10
2019-02-23T09:49:46.790Z,7.30
2019-02-23T09:52:13.439Z,8.10
2019-02-23T09:54:40.059Z,10.57
2019-02-23T09:57:07.563Z,7.07
2019-02-23T09:59:33.843Z,8.03
2019-02-23T10:02:00.182Z,6.40
2019-02-23T10:04:26.784Z,6.50
2019-02-23T10:06:53.115Z,7.03
2019-02-23T10:09:19.710Z,6.03
2019-02-23T10:11:46.034Z,7.13
2019-02-23T10:14:12.379Z,7.50
2019-02-23T10:16:38.745Z,7.80
2019-02-23T10:19:05.422Z,7.37
2019-02-23T10:21:32.046Z,7.50
2019-02-23T10:23:58.653Z,6.80
2019-02-23T10:26:25.027Z,6.40
2019-02-23T10:28:51.726Z,7.47
2019-02-23T10:31:18.370Z,6.53
2019-02-23T10:33:47.642Z,7.47
2019-02-23T10:36:13.165Z,6.30
2019-02-23T10:38:39.518Z,6.20
2019-02-23T10:41:06.334Z,5.67
2019-02-23T10:43:32.692Z,8.10
2019-02-23T10:45:59.074Z,6.40
2019-02-23T10:48:25.735Z,4.77
2019-02-23T10:50:52.213Z,5.50
2019-02-23T10:53:20.014Z,5.30
2019-02-23T10:55:46.555Z,4.93
2019-02-23T10:58:13.191Z,5.37
2019-02-23T11:00:39.532Z,4.50
2019-02-23T11:03:06.149Z,6.13
2019-02-23T11:05:32.558Z,5.20
2019-02-23T11:07:58.923Z,4.83
2019-02-23T11:10:25.714Z,5.63
2019-02-23T11:12:52.556Z,5.67
2019-02-23T11:15:19.779Z,4.53
2019-02-23T11:17:46.321Z,4.87
2019-02-23T11:20:14.715Z,5.37
2019-02-23T11:22:41.643Z,5.20
2019-02-23T11:25:10.072Z,4.33
2019-02-23T11:27:36.406Z,4.00
2019-02-23T11:30:07.693Z,4.80
2019-02-23T11:32:35.284Z,4.50
2019-02-23T11:35:01.889Z,4.60
2019-02-23T11:37:28.248Z,4.10
2019-02-23T11:39:54.830Z,4.47
2019-02-23T11:42:21.258Z,4.30
2019-02-23T11:44:47.617Z,5.57
2019-02-23T11:47:13.982Z,5.90
2019-02-23T11:49:40.300Z,5.20
2019-02-23T11:52:07.050Z,5.17
2019-02-23T11:54:33.375Z,4.50
2019-02-23T11:57:00.146Z,4.57
2019-02-23T11:59:26.533Z,4.10
2019-02-23T12:01:53.022Z,5.90
2019-02-23T12:04:19.413Z,4.87
2019-02-23T12:06:45.739Z,5.50
2019-02-23T12:09:12.069Z,4.70
2019-02-23T12:11:38.622Z,3.80
2019-02-23T12:14:05.931Z,3.57
2019-02-23T12:16:32.490Z,3.13
2019-02-23T12:18:59.003Z,3.03
2019-02-23T12:21:25.670Z,3.60
2019-02-23T12:23:52.148Z,2.67
2019-02-23T12:26:18.462Z,2.97
2019-02-23T12:28:44.817Z,2.97
2019-02-23T12:31:11.165Z,2.97
2019-02-23T12:33:37.781Z,2.50
2019-02-23T12:36:04.123Z,2.87
2019-02-23T12:38:30.754Z,3.40
2019-02-23T12:40:57.402Z,3.03
2019-02-23T12:43:23.731Z,3.43
2019-02-23T12:45:50.379Z,3.20
2019-02-23T12:48:16.827Z,2.60
2019-02-23T12:50:43.461Z,2.70
2019-02-23T12:53:10.144Z,2.70
2019-02-23T12:55:37.549Z,2.33
2019-02-23T12:58:04.463Z,3.40
2019-02-23T13:00:31.004Z,3.80
2019-02-23T13:02:57.372Z,3.60
2019-02-23T13:05:23.988Z,3.70
2019-02-23T13:07:50.382Z,3.27
2019-02-23T13:10:16.797Z,3.83
2019-02-23T13:13:11.262Z,2.37
2019-02-23T13:15:49.533Z,3.13
2019-02-23T13:18:44.589Z,3.53
2019-02-23T13:21:21.652Z,3.80
2019-02-23T13:24:31.020Z,3.73
2019-02-23T13:27:08.899Z,3.70
2019-02-23T13:29:59.119Z,3.77
2019-02-23T13:32:33.755Z,4.30
2019-02-23T13:35:43.275Z,4.40
2019-02-23T13:38:41.098Z,4.47
2019-02-23T13:41:30.294Z,3.33
2019-02-23T13:44:36.910Z,3.80
2019-02-23T13:47:20.594Z,4.10
2019-02-23T13:50:21.153Z,5.13
2019-02-23T13:53:13.625Z,4.40
2019-02-23T13:56:21.346Z,4.03
2019-02-23T13:59:12.986Z,4.57
2019-02-23T14:02:06.010Z,5.00
2019-02-23T14:04:49.579Z,5.23
2019-02-23T14:07:55.633Z,4.67
2019-02-23T14:10:37.246Z,4.63
2019-02-23T14:13:33.660Z,4.57
2019-02-23T14:16:08.483Z,6.13
2019-02-23T14:19:07.574Z,4.33
2019-02-23T14:22:07.813Z,5.60
2019-02-23T14:25:05.563Z,4.60
2019-02-23T14:28:10.551Z,4.83
2019-02-23T14:31:05.532Z,5.53
2019-02-23T14:34:01.577Z,5.83
2019-02-23T14:36:55.480Z,5.57
2019-02-23T14:39:45.561Z,6.47
2019-02-23T14:42:39.843Z,5.80
2019-02-23T14:45:44.358Z,6.50
2019-02-23T14:48:40.375Z,6.40
2019-02-23T14:51:34.664Z,7.83
2019-02-23T14:54:09.439Z,6.60
2019-02-23T14:56:44.585Z,7.17
2019-02-23T14:59:33.151Z,6.63
2019-02-23T15:02:11.316Z,6.93
2019-02-23T15:05:05.676Z,7.33
2019-02-23T15:07:52.566Z,8.10
2019-02-23T15:10:44.241Z,7.00
2019-02-23T15:13:38.558Z,8.30
2019-02-23T15:16:25.602Z,8.23
2019-02-23T15:19:22.998Z,8.83
2019-02-23T15:21:55.006Z,8.33
2019-02-23T15:24:29.937Z,8.60
2019-02-23T15:27:20.078Z,8.07
2019-02-23T15:30:06.821Z,7.77
2019-02-23T15:33:02.508Z,7.57
2019-02-23T15:35:55.419Z,6.90
2019-02-23T15:38:42.718Z,7.80
2019-02-23T15:41:40.004Z,8.40
2019-02-23T15:44:21.573Z,6.97
2019-02-23T15:47:08.910Z,8.30
2019-02-23T15:49:35.421Z,7.23
2019-02-23T15:52:02.716Z,6.97
2019-02-23T15:54:29.362Z,8.13
2019-02-23T15:56:56.188Z,6.90
2019-02-23T15:59:22.617Z,7.83
2019-02-23T16:01:50.446Z,7.20
2019-02-23T16:04:17.056Z,6.93
2019-02-23T16:06:43.409Z,6.30
2019-02-23T16:09:09.993Z,7.73
2019-02-23T16:11:36.660Z,7.53
2019-02-23T16:14:02.970Z,7.43
2019-02-23T16:16:29.299Z,6.40
2019-02-23T16:18:55.733Z,6.80
2019-02-23T16:21:22.313Z,7.17
2019-02-23T16:23:48.935Z,7.00
2019-02-23T16:26:15.591Z,7.50
2019-02-23T16:28:41.925Z,7.77
2019-02-23T16:31:08.641Z,7.43
2019-02-23T16:33:35.270Z,6.60
2019-02-23T16:36:02.120Z,9.27
2019-02-23T16:38:28.830Z,7.43
2019-02-23T16:40:55.349Z,6.00
2019-02-23T16:43:24.494Z,6.37
2019-02-23T16:45:50.994Z,8.03
2019-02-23T16:48:17.301Z,7.80
2019-02-23T16:50:43.922Z,8.23
2019-02-23T16:53:10.496Z,7.20
2019-02-23T16:55:37.144Z,6.70
2019-02-23T16:58:03.452Z,7.17
2019-02-23T17:00:30.112Z,5.97
2019-02-23T17:02:56.865Z,7.17
2019-02-23T17:05:23.290Z,7.20
2019-02-23T17:07:50.081Z,7.50
2019-02-23T17:10:16.792Z,8.03
2019-02-23T17:12:43.801Z,7.00
2019-02-23T17:15:10.751Z,8.10
2019-02-23T17:17:37.365Z,8.60
2019-02-23T17:20:04.827Z,10.70
2019-02-23T17:22:31.236Z,9.67
2019-02-23T17:24:57.810Z,8.97
2019-02-23T17:27:35.543Z,8.87
2019-02-23T17:29:53.438Z,9.33
2019-02-23T17:32:20.068Z,9.80
2019-02-23T17:34:46.693Z,9.70
2019-02-23T17:37:13.247Z,9.73
2019-02-23T17:39:39.649Z,12.83
2019-02-23T17:42:06.795Z,16.10
2019-02-23T17:44:33.427Z,15.17
2019-02-23T17:47:00.101Z,15.60
2019-02-23T17:49:26.696Z,14.20
2019-02-23T17:51:52.996Z,14.30
2019-02-23T17:54:19.314Z,12.60
2019-02-23T17:56:46.700Z,11.90
2019-02-23T17:59:14.405Z,12.13
2019-02-23T18:01:40.843Z,13.10
2019-02-23T18:04:07.197Z,17.57
2019-02-23T18:06:34.915Z,12.30
2019-02-23T18:09:01.348Z,12.23
2019-02-23T18:11:29.964Z,12.00
2019-02-23T18:13:56.586Z,10.83
2019-02-23T18:16:22.910Z,9.97
2019-02-23T18:18:49.282Z,10.17
2019-02-23T18:21:15.620Z,11.27
2019-02-23T18:23:42.297Z,12.27
2019-02-23T18:26:08.919Z,11.07
2019-02-23T18:28:35.854Z,10.90
2019-02-23T18:31:03.447Z,11.30
2019-02-23T18:33:30.199Z,14.13
2019-02-23T18:35:56.755Z,11.30
2019-02-23T18:38:23.398Z,13.60
2019-02-23T18:40:51.069Z,11.27
2019-02-23T18:43:17.721Z,10.70
2019-02-23T18:45:47.426Z,12.13
2019-02-23T18:48:12.627Z,14.90
2019-02-23T18:50:39.365Z,12.37
2019-02-23T18:53:05.990Z,11.33
2019-02-23T18:55:40.680Z,13.07
2019-02-23T18:58:00.870Z,11.90
2019-02-23T19:00:27.503Z,14.40
2019-02-23T19:02:54.111Z,12.70
2019-02-23T19:05:20.511Z,11.80
2019-02-23T19:07:47.085Z,11.70
2019-02-23T19:10:13.482Z,10.80
2019-02-23T19:12:40.163Z,9.87
2019-02-23T19:15:11.834Z,9.87
2019-02-23T19:17:38.565Z,11.90
2019-02-23T19:20:13.109Z,10.93
2019-02-23T19:22:39.769Z,12.17
2019-02-23T19:25:08.909Z,11.03
2019-02-23T19:27:35.218Z,11.67
2019-02-23T19:30:02.022Z,11.80
2019-02-23T19:32:30.491Z,11.93
2019-02-23T19:34:56.861Z,11.70
2019-02-23T19:37:23.352Z,11.30
2019-02-23T19:39:50.221Z,11.47
2019-02-23T19:42:16.620Z,14.30
2019-02-23T19:44:42.962Z,21.80
2019-02-23T19:47:09.782Z,16.80
2019-02-23T19:49:36.478Z,16.93
2019-02-23T19:52:03.818Z,12.80
2019-02-23T19:54:30.613Z,13.07
2019-02-23T19:56:57.068Z,13.67
2019-02-23T19:59:23.649Z,13.63
2019-02-23T20:01:50.147Z,13.70
2019-02-23T20:04:16.820Z,14.27
2019-02-23T20:06:43.352Z,13.07
2019-02-23T20:09:10.058Z,14.27
2019-02-23T20:11:38.372Z,15.33
2019-02-23T20:14:04.964Z,12.90
2019-02-23T20:16:31.329Z,14.07
2019-02-23T20:18:57.936Z,15.00
2019-02-23T20:21:24.617Z,14.67
2019-02-23T20:23:51.275Z,14.03
2019-02-23T20:26:17.611Z,14.33
2019-02-23T20:28:43.940Z,15.30
2019-02-23T20:31:10.348Z,14.37
2019-02-23T20:33:36.980Z,14.87
2019-02-23T20:36:03.573Z,15.53
2019-02-23T20:38:30.300Z,15.20
2019-02-23T20:40:56.638Z,13.87
2019-02-23T20:43:23.306Z,14.17
2019-02-23T20:45:49.686Z,14.90
2019-02-23T20:48:16.666Z,15.77
2019-02-23T20:50:43.142Z,18.27
2019-02-23T20:53:09.656Z,16.67
2019-02-23T20:55:36.297Z,15.33
2019-02-23T20:58:02.695Z,15.10
2019-02-23T21:00:29.334Z,15.33
2019-02-23T21:02:55.640Z,17.00
2019-02-23T21:05:21.966Z,14.77
2019-02-23T21:07:48.643Z,15.13
2019-02-23T21:10:16.383Z,17.17
2019-02-23T21:12:43.006Z,15.20
2019-02-23T21:15:10.407Z,16.03
2019-02-23T21:17:38.756Z,14.97
2019-02-23T21:20:08.045Z,14.47
2019-02-23T21:22:35.565Z,15.60
2019-02-23T21:25:04.257Z,13.20
2019-02-23T21:27:30.649Z,13.20
2019-02-23T21:29:58.399Z,14.13
2019-02-23T21:32:24.757Z,15.60
2019-02-23T21:34:51.208Z,16.10
2019-02-23T21:37:18.315Z,14.53
2019-02-23T21:39:44.807Z,14.10
2019-02-23T21:42:11.184Z,16.87
2019-02-23T21:44:37.506Z,13.67
2019-02-23T21:47:03.839Z,18.17
2019-02-23T21:49:31.658Z,13.40
2019-02-23T21:51:58.113Z,13.10
2019-02-23T21:54:25.743Z,18.13
2019-02-23T21:56:52.459Z,12.30
2019-02-23T21:59:18.842Z,15.17
2019-02-23T22:01:45.531Z,13.43
2019-02-23T22:04:11.964Z,12.63
2019-02-23T22:06:38.421Z,19.13
2019-02-23T22:09:04.942Z,17.50
2019-02-23T22:11:33.237Z,13.00
2019-02-23T22:14:00.047Z,13.87
2019-02-23T22:16:26.850Z,12.47
2019-02-23T22:18:53.237Z,15.23
2019-02-23T22:21:19.637Z,14.00
2019-02-23T22:23:46.287Z,14.77
2019-02-23T22:26:12.678Z,15.10
2019-02-23T22:28:40.179Z,14.03
2019-02-23T22:31:06.624Z,13.60
2019-02-23T22:33:33.761Z,13.70
2019-02-23T22:36:00.072Z,11.13
2019-02-23T22:38:27.788Z,12.30
2019-02-23T22:40:54.383Z,12.20
2019-02-23T22:43:20.695Z,11.70
2019-02-23T22:45:47.285Z,12.70
2019-02-23T22:48:13.684Z,12.40
2019-02-23T22:50:40.172Z,12.70
2019-02-23T22:53:06.933Z,11.47
2019-02-23T22:55:33.421Z,11.47
2019-02-23T22:58:00.212Z,10.50
2019-02-23T23:00:28.896Z,11.30
2019-02-23T23:02:57.135Z,14.13
2019-02-23T23:05:23.476Z,10.17
2019-02-23T23:07:49.837Z,11.93
2019-02-23T23:10:16.415Z,12.63
2019-02-23T23:12:43.022Z,11.13
2019-02-23T23:15:10.317Z,15.63
2019-02-23T23:17:36.761Z,12.87
2019-02-23T23:20:06.264Z,11.53
2019-02-23T23:22:32.848Z,10.00
2019-02-23T23:24:59.438Z,10.27
2019-02-23T23:27:25.730Z,9.73
2019-02-23T23:29:52.087Z,16.47
2019-02-23T23:32:18.392Z,17.47
2019-02-23T23:34:44.725Z,11.73
2019-02-23T23:37:11.317Z,9.87
2019-02-23T23:39:37.654Z,10.30
2019-02-23T23:42:04.292Z,10.77
2019-02-23T23:44:30.899Z,10.17
2019-02-23T23:46:57.212Z,9.37
2019-02-23T23:49:23.815Z,11.03
2019-02-23T23:51:50.377Z,11.57
2019-02-23T23:54:16.989Z,11.60
2019-02-23T23:56:43.327Z,11.07
2019-02-23T23:59:09.670Z,9.97
